sensor_id;sensor_type;location;lat;lon;timestamp;pressure;altitude;pressure_sealevel;temperature;humidity
16806;BME280;8520;50.102;20.010;2023-05-20T00:00:56;99161.94;;;15.41;77.29
16806;BME280;8520;50.102;20.010;2023-05-20T00:03:24;99164.97;;;15.43;77.28
16806;BME280;8520;50.102;20.010;2023-05-20T00:05:52;99166.78;;;15.46;77.18
16806;BME280;8520;50.102;20.010;2023-05-20T00:08:20;99158.97;;;15.50;77.04
16806;BME280;8520;50.102;20.010;2023-05-20T00:10:48;99154.72;;;15.55;77.00
16806;BME280;8520;50.102;20.010;2023-05-20T00:13:18;99156.25;;;15.56;77.05
16806;BME280;8520;50.102;20.010;2023-05-20T00:15:46;99157.47;;;15.49;76.79
16806;BME280;8520;50.102;20.010;2023-05-20T00:18:14;99148.25;;;15.37;77.26
16806;BME280;8520;50.102;20.010;2023-05-20T00:20:42;99167.72;;;15.37;77.38
16806;BME280;8520;50.102;20.010;2023-05-20T00:23:10;99168.91;;;15.31;77.63
16806;BME280;8520;50.102;20.010;2023-05-20T00:25:38;99159.91;;;15.41;77.25
16806;BME280;8520;50.102;20.010;2023-05-20T00:28:06;99153.31;;;15.39;77.45
16806;BME280;8520;50.102;20.010;2023-05-20T00:30:38;99147.31;;;15.46;77.50
16806;BME280;8520;50.102;20.010;2023-05-20T00:33:06;99157.63;;;15.40;77.50
16806;BME280;8520;50.102;20.010;2023-05-20T00:35:34;99153.31;;;15.39;77.61
16806;BME280;8520;50.102;20.010;2023-05-20T00:38:02;99156.38;;;15.41;77.52
16806;BME280;8520;50.102;20.010;2023-05-20T00:40:30;99166.19;;;15.36;77.90
16806;BME280;8520;50.102;20.010;2023-05-20T00:42:59;99165.41;;;15.36;77.90
16806;BME280;8520;50.102;20.010;2023-05-20T00:45:27;99160.19;;;15.17;78.15
16806;BME280;8520;50.102;20.010;2023-05-20T00:47:57;99158.06;;;15.33;78.45
16806;BME280;8520;50.102;20.010;2023-05-20T00:50:27;99147.34;;;15.20;78.68
16806;BME280;8520;50.102;20.010;2023-05-20T00:52:55;99141.78;;;15.20;78.83
16806;BME280;8520;50.102;20.010;2023-05-20T00:55:24;99141.59;;;15.29;78.64
16806;BME280;8520;50.102;20.010;2023-05-20T00:57:53;99146.56;;;15.19;79.05
16806;BME280;8520;50.102;20.010;2023-05-20T01:00:22;99147.19;;;15.09;79.48
16806;BME280;8520;50.102;20.010;2023-05-20T01:02:50;99148.28;;;15.17;79.28
16806;BME280;8520;50.102;20.010;2023-05-20T01:05:19;99137.41;;;15.13;79.58
16806;BME280;8520;50.102;20.010;2023-05-20T01:07:48;99134.13;;;15.15;79.51
16806;BME280;8520;50.102;20.010;2023-05-20T01:10:16;99135.00;;;15.01;79.85
16806;BME280;8520;50.102;20.010;2023-05-20T01:12:48;99132.50;;;15.03;80.45
16806;BME280;8520;50.102;20.010;2023-05-20T01:15:18;99137.91;;;15.12;79.99
16806;BME280;8520;50.102;20.010;2023-05-20T01:17:51;99129.81;;;15.14;80.01
16806;BME280;8520;50.102;20.010;2023-05-20T01:20:21;99132.53;;;15.08;80.11
16806;BME280;8520;50.102;20.010;2023-05-20T01:22:54;99121.53;;;15.19;79.93
16806;BME280;8520;50.102;20.010;2023-05-20T01:25:23;99123.75;;;15.15;79.97
16806;BME280;8520;50.102;20.010;2023-05-20T01:27:53;99126.66;;;15.01;80.63
16806;BME280;8520;50.102;20.010;2023-05-20T01:30:25;99121.91;;;15.07;80.73
16806;BME280;8520;50.102;20.010;2023-05-20T01:33:00;99115.91;;;15.14;80.38
16806;BME280;8520;50.102;20.010;2023-05-20T01:35:29;99123.22;;;15.11;80.37
16806;BME280;8520;50.102;20.010;2023-05-20T01:38:00;99124.91;;;15.03;80.68
16806;BME280;8520;50.102;20.010;2023-05-20T01:40:30;99122.69;;;15.07;80.61
16806;BME280;8520;50.102;20.010;2023-05-20T01:43:01;99119.03;;;14.96;80.85
16806;BME280;8520;50.102;20.010;2023-05-20T01:45:30;99114.44;;;14.92;81.13
16806;BME280;8520;50.102;20.010;2023-05-20T01:47:58;99114.31;;;14.81;81.89
16806;BME280;8520;50.102;20.010;2023-05-20T01:50:27;99118.03;;;14.99;81.40
16806;BME280;8520;50.102;20.010;2023-05-20T01:52:55;99116.47;;;14.92;81.52
16806;BME280;8520;50.102;20.010;2023-05-20T01:55:25;99113.72;;;14.98;81.44
16806;BME280;8520;50.102;20.010;2023-05-20T01:57:53;99116.34;;;15.07;81.17
16806;BME280;8520;50.102;20.010;2023-05-20T02:00:21;99116.31;;;15.01;81.34
16806;BME280;8520;50.102;20.010;2023-05-20T02:02:50;99109.28;;;15.06;81.25
16806;BME280;8520;50.102;20.010;2023-05-20T02:05:18;99111.56;;;15.07;81.06
16806;BME280;8520;50.102;20.010;2023-05-20T02:07:46;99108.34;;;15.14;80.97
16806;BME280;8520;50.102;20.010;2023-05-20T02:10:14;99112.13;;;15.11;81.23
16806;BME280;8520;50.102;20.010;2023-05-20T02:12:44;99116.56;;;15.03;81.11
16806;BME280;8520;50.102;20.010;2023-05-20T02:15:13;99122.13;;;15.03;81.35
16806;BME280;8520;50.102;20.010;2023-05-20T02:17:42;99119.13;;;15.07;81.55
16806;BME280;8520;50.102;20.010;2023-05-20T02:20:10;99127.28;;;15.10;81.34
16806;BME280;8520;50.102;20.010;2023-05-20T02:22:39;99126.72;;;15.06;81.57
16806;BME280;8520;50.102;20.010;2023-05-20T02:25:09;99131.84;;;15.13;81.37
16806;BME280;8520;50.102;20.010;2023-05-20T02:27:37;99133.53;;;15.05;81.37
16806;BME280;8520;50.102;20.010;2023-05-20T02:30:08;99138.56;;;15.01;81.57
16806;BME280;8520;50.102;20.010;2023-05-20T02:32:37;99126.59;;;14.95;81.91
16806;BME280;8520;50.102;20.010;2023-05-20T02:35:05;99123.81;;;14.95;81.94
16806;BME280;8520;50.102;20.010;2023-05-20T02:37:34;99135.63;;;14.90;81.92
16806;BME280;8520;50.102;20.010;2023-05-20T02:40:06;99122.31;;;14.94;82.14
16806;BME280;8520;50.102;20.010;2023-05-20T02:42:37;99118.94;;;14.90;82.14
16806;BME280;8520;50.102;20.010;2023-05-20T02:45:08;99129.44;;;15.01;81.89
16806;BME280;8520;50.102;20.010;2023-05-20T02:47:37;99119.13;;;15.07;81.25
16806;BME280;8520;50.102;20.010;2023-05-20T02:50:06;99122.22;;;14.88;82.56
16806;BME280;8520;50.102;20.010;2023-05-20T02:52:35;99116.91;;;15.11;81.81
16806;BME280;8520;50.102;20.010;2023-05-20T02:55:04;99125.28;;;15.16;81.57
16806;BME280;8520;50.102;20.010;2023-05-20T02:57:33;99129.28;;;15.10;81.68
16806;BME280;8520;50.102;20.010;2023-05-20T03:00:08;99127.38;;;15.21;81.49
16806;BME280;8520;50.102;20.010;2023-05-20T03:02:38;99136.16;;;15.14;81.38
16806;BME280;8520;50.102;20.010;2023-05-20T03:05:07;99128.03;;;15.11;81.74
16806;BME280;8520;50.102;20.010;2023-05-20T03:07:36;99131.06;;;15.13;81.36
16806;BME280;8520;50.102;20.010;2023-05-20T03:10:06;99128.66;;;15.26;81.12
16806;BME280;8520;50.102;20.010;2023-05-20T03:12:37;99137.06;;;15.06;81.39
16806;BME280;8520;50.102;20.010;2023-05-20T03:15:09;99132.34;;;15.12;81.57
16806;BME280;8520;50.102;20.010;2023-05-20T03:17:38;99142.25;;;15.18;81.53
16806;BME280;8520;50.102;20.010;2023-05-20T03:20:07;99141.47;;;15.18;81.48
16806;BME280;8520;50.102;20.010;2023-05-20T03:22:36;99139.78;;;15.26;81.25
16806;BME280;8520;50.102;20.010;2023-05-20T03:25:05;99144.88;;;15.28;81.21
16806;BME280;8520;50.102;20.010;2023-05-20T03:27:33;99142.88;;;15.28;81.13
16806;BME280;8520;50.102;20.010;2023-05-20T03:30:03;99135.81;;;15.33;81.15
16806;BME280;8520;50.102;20.010;2023-05-20T03:32:33;99144.81;;;15.22;81.38
16806;BME280;8520;50.102;20.010;2023-05-20T03:35:01;99137.78;;;15.27;81.30
16806;BME280;8520;50.102;20.010;2023-05-20T03:37:29;99137.00;;;15.26;81.22
16806;BME280;8520;50.102;20.010;2023-05-20T03:39:57;99137.59;;;15.36;80.99
16806;BME280;8520;50.102;20.010;2023-05-20T03:42:25;99140.56;;;15.27;80.64
16806;BME280;8520;50.102;20.010;2023-05-20T03:44:54;99134.28;;;15.32;80.62
16806;BME280;8520;50.102;20.010;2023-05-20T03:47:24;99145.09;;;15.24;81.38
16806;BME280;8520;50.102;20.010;2023-05-20T03:49:54;99125.41;;;15.28;81.19
16806;BME280;8520;50.102;20.010;2023-05-20T03:52:22;99141.22;;;15.16;81.31
16806;BME280;8520;50.102;20.010;2023-05-20T03:54:50;99138.91;;;15.40;81.21
16806;BME280;8520;50.102;20.010;2023-05-20T03:57:18;99139.84;;;15.32;81.45
16806;BME280;8520;50.102;20.010;2023-05-20T03:59:46;99137.78;;;15.27;81.37
16806;BME280;8520;50.102;20.010;2023-05-20T04:02:15;99147.44;;;15.31;81.05
16806;BME280;8520;50.102;20.010;2023-05-20T04:04:43;99140.72;;;15.43;80.97
16806;BME280;8520;50.102;20.010;2023-05-20T04:07:13;99134.78;;;15.30;81.03
16806;BME280;8520;50.102;20.010;2023-05-20T04:09:42;99123.69;;;15.36;81.16
16806;BME280;8520;50.102;20.010;2023-05-20T04:12:10;99129.59;;;15.43;81.23
16806;BME280;8520;50.102;20.010;2023-05-20T04:14:39;99122.41;;;15.31;81.59
16806;BME280;8520;50.102;20.010;2023-05-20T04:17:08;99122.34;;;15.26;81.58
16806;BME280;8520;50.102;20.010;2023-05-20T04:19:36;99123.69;;;15.36;81.62
16806;BME280;8520;50.102;20.010;2023-05-20T04:22:05;99131.00;;;15.59;81.31
16806;BME280;8520;50.102;20.010;2023-05-20T04:24:34;99125.75;;;15.67;80.84
16806;BME280;8520;50.102;20.010;2023-05-20T04:27:03;99129.47;;;15.58;80.91
16806;BME280;8520;50.102;20.010;2023-05-20T04:29:32;99130.50;;;15.61;80.92
16806;BME280;8520;50.102;20.010;2023-05-20T04:32:00;99127.59;;;15.75;80.90
16806;BME280;8520;50.102;20.010;2023-05-20T04:34:30;99121.81;;;15.79;80.68
16806;BME280;8520;50.102;20.010;2023-05-20T04:37:01;99127.69;;;15.87;80.48
16806;BME280;8520;50.102;20.010;2023-05-20T04:39:29;99125.59;;;15.82;80.67
16806;BME280;8520;50.102;20.010;2023-05-20T04:41:59;99124.00;;;15.69;81.16
16806;BME280;8520;50.102;20.010;2023-05-20T04:44:28;99131.22;;;15.87;80.66
16806;BME280;8520;50.102;20.010;2023-05-20T04:46:57;99129.97;;;15.88;80.65
16806;BME280;8520;50.102;20.010;2023-05-20T04:49:25;99125.66;;;15.87;80.69
16806;BME280;8520;50.102;20.010;2023-05-20T04:51:54;99137.84;;;15.95;81.13
16806;BME280;8520;50.102;20.010;2023-05-20T04:54:23;99127.75;;;15.98;80.85
16806;BME280;8520;50.102;20.010;2023-05-20T04:56:51;99127.41;;;16.27;79.76
16806;BME280;8520;50.102;20.010;2023-05-20T04:59:20;99127.16;;;16.25;80.03
16806;BME280;8520;50.102;20.010;2023-05-20T05:01:49;99121.41;;;16.46;79.71
16806;BME280;8520;50.102;20.010;2023-05-20T05:04:17;99134.88;;;16.47;79.57
16806;BME280;8520;50.102;20.010;2023-05-20T05:06:46;99134.78;;;16.30;80.34
16806;BME280;8520;50.102;20.010;2023-05-20T05:09:15;99134.31;;;16.43;80.50
16806;BME280;8520;50.102;20.010;2023-05-20T05:11:43;99143.94;;;16.42;80.34
16806;BME280;8520;50.102;20.010;2023-05-20T05:14:12;99139.69;;;16.52;80.68
16806;BME280;8520;50.102;20.010;2023-05-20T05:16:41;99137.78;;;16.75;79.83
16806;BME280;8520;50.102;20.010;2023-05-20T05:19:09;99138.06;;;16.88;79.47
16806;BME280;8520;50.102;20.010;2023-05-20T05:21:39;99145.63;;;16.71;80.33
16806;BME280;8520;50.102;20.010;2023-05-20T05:24:07;99141.13;;;16.85;79.80
16806;BME280;8520;50.102;20.010;2023-05-20T05:26:36;99145.94;;;16.90;79.99
16806;BME280;8520;50.102;20.010;2023-05-20T05:29:04;99141.41;;;17.04;79.29
16806;BME280;8520;50.102;20.010;2023-05-20T05:31:34;99139.59;;;16.89;79.68
16806;BME280;8520;50.102;20.010;2023-05-20T05:34:04;99143.41;;;16.86;80.25
16806;BME280;8520;50.102;20.010;2023-05-20T05:36:32;99147.22;;;16.95;80.24
16806;BME280;8520;50.102;20.010;2023-05-20T05:39:01;99141.66;;;17.00;79.91
16806;BME280;8520;50.102;20.010;2023-05-20T05:41:29;99140.59;;;16.92;80.49
16806;BME280;8520;50.102;20.010;2023-05-20T05:43:58;99145.66;;;16.77;80.96
16806;BME280;8520;50.102;20.010;2023-05-20T05:46:27;99139.38;;;17.10;80.77
16806;BME280;8520;50.102;20.010;2023-05-20T05:48:55;99147.75;;;17.04;80.83
16806;BME280;8520;50.102;20.010;2023-05-20T05:51:26;99144.44;;;16.95;81.23
16806;BME280;8520;50.102;20.010;2023-05-20T05:53:56;99140.88;;;17.00;81.64
16806;BME280;8520;50.102;20.010;2023-05-20T05:56:24;99149.59;;;17.30;80.43
16806;BME280;8520;50.102;20.010;2023-05-20T05:58:52;99151.84;;;17.37;79.93
16806;BME280;8520;50.102;20.010;2023-05-20T06:01:20;99143.50;;;17.59;79.47
16806;BME280;8520;50.102;20.010;2023-05-20T06:03:48;99143.25;;;17.52;79.31
16806;BME280;8520;50.102;20.010;2023-05-20T06:06:18;99132.81;;;17.13;80.57
16806;BME280;8520;50.102;20.010;2023-05-20T06:08:48;99139.13;;;17.08;80.86
16806;BME280;8520;50.102;20.010;2023-05-20T06:11:16;99140.66;;;17.09;80.71
16806;BME280;8520;50.102;20.010;2023-05-20T06:13:44;99139.44;;;17.38;80.05
16806;BME280;8520;50.102;20.010;2023-05-20T06:16:13;99150.13;;;17.73;79.24
16806;BME280;8520;50.102;20.010;2023-05-20T06:18:41;99144.53;;;17.90;78.57
16806;BME280;8520;50.102;20.010;2023-05-20T06:21:09;99148.34;;;17.92;78.28
16806;BME280;8520;50.102;20.010;2023-05-20T06:23:38;99142.97;;;18.17;77.99
16806;BME280;8520;50.102;20.010;2023-05-20T06:26:10;99142.00;;;17.81;78.54
16806;BME280;8520;50.102;20.010;2023-05-20T06:28:39;99142.00;;;18.03;77.66
16806;BME280;8520;50.102;20.010;2023-05-20T06:31:07;99139.47;;;17.88;78.00
16806;BME280;8520;50.102;20.010;2023-05-20T06:33:35;99145.78;;;17.50;79.66
16806;BME280;8520;50.102;20.010;2023-05-20T06:36:10;99141.25;;;17.69;79.47
16806;BME280;8520;50.102;20.010;2023-05-20T06:38:39;99148.34;;;17.70;79.17
16806;BME280;8520;50.102;20.010;2023-05-20T06:41:07;99137.19;;;17.81;78.91
16806;BME280;8520;50.102;20.010;2023-05-20T06:43:37;99135.63;;;18.08;78.04
16806;BME280;8520;50.102;20.010;2023-05-20T06:46:20;99138.91;;;18.18;77.55
16806;BME280;8520;50.102;20.010;2023-05-20T06:49:00;99138.69;;;18.04;77.82
16806;BME280;8520;50.102;20.010;2023-05-20T06:51:28;99142.53;;;17.68;79.36
16806;BME280;8520;50.102;20.010;2023-05-20T06:53:57;99146.81;;;17.63;80.38
16806;BME280;8520;50.102;20.010;2023-05-20T06:56:25;99148.84;;;17.63;80.60
16806;BME280;8520;50.102;20.010;2023-05-20T06:58:55;99148.06;;;17.62;80.41
16806;BME280;8520;50.102;20.010;2023-05-20T07:01:24;99135.63;;;17.63;80.72
16806;BME280;8520;50.102;20.010;2023-05-20T07:03:54;99142.25;;;17.60;80.67
16806;BME280;8520;50.102;20.010;2023-05-20T07:06:23;99126.78;;;17.76;80.04
16806;BME280;8520;50.102;20.010;2023-05-20T07:08:52;99126.28;;;17.78;80.11
16806;BME280;8520;50.102;20.010;2023-05-20T07:11:20;99120.72;;;17.66;80.93
16806;BME280;8520;50.102;20.010;2023-05-20T07:13:49;99124.50;;;17.86;80.36
16806;BME280;8520;50.102;20.010;2023-05-20T07:16:18;99117.63;;;17.98;80.36
16806;BME280;8520;50.102;20.010;2023-05-20T07:18:52;99114.06;;;17.92;80.82
16806;BME280;8520;50.102;20.010;2023-05-20T07:21:20;99115.34;;;17.91;80.91
16806;BME280;8520;50.102;20.010;2023-05-20T07:24:20;99113.25;;;18.19;79.59
16806;BME280;8520;50.102;20.010;2023-05-20T07:26:49;99110.91;;;18.40;78.49
16806;BME280;8520;50.102;20.010;2023-05-20T07:29:17;99110.34;;;18.47;78.33
16806;BME280;8520;50.102;20.010;2023-05-20T07:31:46;99105.28;;;18.46;78.59
16806;BME280;8520;50.102;20.010;2023-05-20T07:34:15;99097.75;;;18.87;76.91
16806;BME280;8520;50.102;20.010;2023-05-20T07:36:44;99104.16;;;18.77;77.19
16806;BME280;8520;50.102;20.010;2023-05-20T07:39:13;99100.75;;;18.95;76.94
16806;BME280;8520;50.102;20.010;2023-05-20T07:41:42;99097.81;;;18.76;76.89
16806;BME280;8520;50.102;20.010;2023-05-20T07:44:11;99101.59;;;18.79;77.32
16806;BME280;8520;50.102;20.010;2023-05-20T07:46:43;99104.13;;;19.24;75.86
16806;BME280;8520;50.102;20.010;2023-05-20T07:49:13;99113.38;;;19.49;75.04
16806;BME280;8520;50.102;20.010;2023-05-20T07:51:41;99115.66;;;19.50;74.53
16806;BME280;8520;50.102;20.010;2023-05-20T07:54:10;99119.91;;;19.57;74.52
16806;BME280;8520;50.102;20.010;2023-05-20T07:56:38;99109.00;;;19.53;74.53
16806;BME280;8520;50.102;20.010;2023-05-20T07:59:08;99109.63;;;19.35;74.89
16806;BME280;8520;50.102;20.010;2023-05-20T08:01:41;99112.00;;;19.61;74.43
16806;BME280;8520;50.102;20.010;2023-05-20T08:04:10;99103.38;;;19.59;74.35
16806;BME280;8520;50.102;20.010;2023-05-20T08:06:40;99104.59;;;19.63;74.31
16806;BME280;8520;50.102;20.010;2023-05-20T08:09:15;99095.91;;;19.67;74.22
16806;BME280;8520;50.102;20.010;2023-05-20T08:11:48;99099.81;;;19.58;74.53
16806;BME280;8520;50.102;20.010;2023-05-20T08:14:16;99097.16;;;19.36;75.56
16806;BME280;8520;50.102;20.010;2023-05-20T08:16:48;99092.66;;;19.57;75.37
16806;BME280;8520;50.102;20.010;2023-05-20T08:19:20;99095.19;;;19.61;75.09
16806;BME280;8520;50.102;20.010;2023-05-20T08:21:50;99098.59;;;19.48;75.34
16806;BME280;8520;50.102;20.010;2023-05-20T08:24:18;99082.75;;;19.86;74.42
16806;BME280;8520;50.102;20.010;2023-05-20T08:26:47;99088.31;;;19.62;73.98
16806;BME280;8520;50.102;20.010;2023-05-20T08:29:16;99093.13;;;19.67;75.00
16806;BME280;8520;50.102;20.010;2023-05-20T08:31:45;99093.84;;;19.37;75.73
16806;BME280;8520;50.102;20.010;2023-05-20T08:34:14;99089.66;;;19.55;75.48
16806;BME280;8520;50.102;20.010;2023-05-20T08:36:43;99089.97;;;19.76;75.09
16806;BME280;8520;50.102;20.010;2023-05-20T08:39:13;99086.16;;;19.49;75.51
16806;BME280;8520;50.102;20.010;2023-05-20T08:41:45;99099.22;;;19.30;76.54
16806;BME280;8520;50.102;20.010;2023-05-20T08:44:16;99083.66;;;19.04;77.49
16806;BME280;8520;50.102;20.010;2023-05-20T08:46:47;99084.72;;;19.67;75.68
16806;BME280;8520;50.102;20.010;2023-05-20T08:49:17;99091.56;;;19.66;75.56
16806;BME280;8520;50.102;20.010;2023-05-20T08:51:46;99095.13;;;19.66;75.53
16806;BME280;8520;50.102;20.010;2023-05-20T08:54:16;99093.97;;;19.56;76.02
16806;BME280;8520;50.102;20.010;2023-05-20T08:56:46;99096.81;;;19.81;75.22
16806;BME280;8520;50.102;20.010;2023-05-20T08:59:16;99097.28;;;19.85;75.26
16806;BME280;8520;50.102;20.010;2023-05-20T09:01:44;99076.59;;;19.63;74.85
16806;BME280;8520;50.102;20.010;2023-05-20T09:04:13;99084.59;;;20.02;73.82
16806;BME280;8520;50.102;20.010;2023-05-20T09:06:41;99078.88;;;19.65;74.67
16806;BME280;8520;50.102;20.010;2023-05-20T09:09:10;99085.53;;;20.11;74.00
16806;BME280;8520;50.102;20.010;2023-05-20T09:11:40;99082.28;;;20.31;73.10
16806;BME280;8520;50.102;20.010;2023-05-20T09:14:09;99081.81;;;20.27;73.42
16806;BME280;8520;50.102;20.010;2023-05-20T09:16:38;99077.47;;;20.50;73.03
16806;BME280;8520;50.102;20.010;2023-05-20T09:19:07;99074.13;;;20.71;71.94
16806;BME280;8520;50.102;20.010;2023-05-20T09:21:35;99081.81;;;20.27;72.55
16806;BME280;8520;50.102;20.010;2023-05-20T09:24:05;99080.94;;;20.75;71.35
16806;BME280;8520;50.102;20.010;2023-05-20T09:26:33;99083.50;;;20.92;71.05
16806;BME280;8520;50.102;20.010;2023-05-20T09:29:03;99085.72;;;20.62;71.42
16806;BME280;8520;50.102;20.010;2023-05-20T09:31:31;99077.53;;;20.82;71.24
16806;BME280;8520;50.102;20.010;2023-05-20T09:34:01;99073.72;;;20.99;71.03
16806;BME280;8520;50.102;20.010;2023-05-20T09:36:32;99077.31;;;20.80;71.02
16806;BME280;8520;50.102;20.010;2023-05-20T09:39:02;99080.44;;;20.58;72.14
16806;BME280;8520;50.102;20.010;2023-05-20T09:41:33;99074.19;;;20.84;71.32
16806;BME280;8520;50.102;20.010;2023-05-20T09:44:06;99073.38;;;21.08;71.19
16806;BME280;8520;50.102;20.010;2023-05-20T09:46:35;99074.16;;;21.03;70.88
16806;BME280;8520;50.102;20.010;2023-05-20T09:49:05;99073.72;;;21.18;70.69
16806;BME280;8520;50.102;20.010;2023-05-20T09:51:34;99069.84;;;21.21;70.33
16806;BME280;8520;50.102;20.010;2023-05-20T09:54:03;99074.28;;;21.61;69.30
16806;BME280;8520;50.102;20.010;2023-05-20T09:56:34;99080.19;;;21.45;69.39
16806;BME280;8520;50.102;20.010;2023-05-20T09:59:05;99077.94;;;21.56;69.36
16806;BME280;8520;50.102;20.010;2023-05-20T10:01:34;99080.03;;;21.24;69.80
16806;BME280;8520;50.102;20.010;2023-05-20T10:04:04;99078.56;;;21.49;69.86
16806;BME280;8520;50.102;20.010;2023-05-20T10:06:47;99078.53;;;21.81;69.24
16806;BME280;8520;50.102;20.010;2023-05-20T10:09:27;99079.56;;;21.97;68.52
16806;BME280;8520;50.102;20.010;2023-05-20T10:12:06;99075.66;;;21.87;69.38
16806;BME280;8520;50.102;20.010;2023-05-20T10:14:48;99071.03;;;21.57;69.85
16806;BME280;8520;50.102;20.010;2023-05-20T10:17:23;99065.69;;;21.86;68.15
16806;BME280;8520;50.102;20.010;2023-05-20T10:19:56;99068.47;;;21.59;69.11
16806;BME280;8520;50.102;20.010;2023-05-20T10:22:26;99066.88;;;22.04;67.66
16806;BME280;8520;50.102;20.010;2023-05-20T10:24:58;99059.63;;;21.95;67.55
16806;BME280;8520;50.102;20.010;2023-05-20T10:27:26;99064.28;;;22.19;66.16
16806;BME280;8520;50.102;20.010;2023-05-20T10:29:56;99069.59;;;22.36;66.41
16806;BME280;8520;50.102;20.010;2023-05-20T10:32:25;99060.41;;;22.35;66.74
16806;BME280;8520;50.102;20.010;2023-05-20T10:34:58;99068.88;;;21.77;68.03
16806;BME280;8520;50.102;20.010;2023-05-20T10:37:27;99070.13;;;22.21;67.67
16806;BME280;8520;50.102;20.010;2023-05-20T10:40:06;99067.59;;;22.70;66.59
16806;BME280;8520;50.102;20.010;2023-05-20T10:42:35;99066.91;;;23.11;64.92
16806;BME280;8520;50.102;20.010;2023-05-20T10:45:05;99067.81;;;23.27;64.10
16806;BME280;8520;50.102;20.010;2023-05-20T10:47:34;99060.25;;;22.67;65.69
16806;BME280;8520;50.102;20.010;2023-05-20T10:50:04;99066.00;;;22.62;66.23
16806;BME280;8520;50.102;20.010;2023-05-20T10:52:35;99071.13;;;22.23;67.57
16806;BME280;8520;50.102;20.010;2023-05-20T10:55:04;99069.47;;;22.28;66.31
16806;BME280;8520;50.102;20.010;2023-05-20T10:57:33;99069.69;;;22.04;67.76
16806;BME280;8520;50.102;20.010;2023-05-20T11:00:05;99067.63;;;21.78;67.45
16806;BME280;8520;50.102;20.010;2023-05-20T11:02:36;99061.66;;;22.47;66.34
16806;BME280;8520;50.102;20.010;2023-05-20T11:05:06;99054.84;;;23.24;64.91
16806;BME280;8520;50.102;20.010;2023-05-20T11:07:37;99037.84;;;23.79;63.75
16806;BME280;8520;50.102;20.010;2023-05-20T11:10:07;99043.72;;;22.98;64.66
16806;BME280;8520;50.102;20.010;2023-05-20T11:12:35;99043.28;;;22.46;66.11
16806;BME280;8520;50.102;20.010;2023-05-20T11:15:06;99042.13;;;22.89;65.73
16806;BME280;8520;50.102;20.010;2023-05-20T11:17:34;99036.69;;;22.44;67.12
16806;BME280;8520;50.102;20.010;2023-05-20T11:20:03;99031.81;;;22.44;67.08
16806;BME280;8520;50.102;20.010;2023-05-20T11:22:31;99019.69;;;22.97;65.27
16806;BME280;8520;50.102;20.010;2023-05-20T11:25:04;99014.75;;;22.76;65.77
16806;BME280;8520;50.102;20.010;2023-05-20T11:27:33;99010.78;;;22.72;66.05
16806;BME280;8520;50.102;20.010;2023-05-20T11:30:01;99008.84;;;22.67;65.22
16806;BME280;8520;50.102;20.010;2023-05-20T11:32:31;99006.56;;;22.78;64.97
16806;BME280;8520;50.102;20.010;2023-05-20T11:34:59;99005.56;;;23.59;63.70
16806;BME280;8520;50.102;20.010;2023-05-20T11:37:27;99000.91;;;23.90;62.52
16806;BME280;8520;50.102;20.010;2023-05-20T11:40:03;98993.03;;;23.96;63.39
16806;BME280;8520;50.102;20.010;2023-05-20T11:42:35;98998.22;;;23.56;65.05
16806;BME280;8520;50.102;20.010;2023-05-20T11:45:04;98991.78;;;24.05;63.88
16806;BME280;8520;50.102;20.010;2023-05-20T11:47:34;98991.13;;;24.28;63.24
16806;BME280;8520;50.102;20.010;2023-05-20T11:50:02;98987.78;;;25.11;60.83
16806;BME280;8520;50.102;20.010;2023-05-20T11:52:32;98981.38;;;25.18;60.75
16806;BME280;8520;50.102;20.010;2023-05-20T11:55:00;98988.16;;;25.00;61.50
16806;BME280;8520;50.102;20.010;2023-05-20T11:57:29;98980.03;;;24.81;61.38
16806;BME280;8520;50.102;20.010;2023-05-20T11:59:58;98985.94;;;24.47;61.60
16806;BME280;8520;50.102;20.010;2023-05-20T12:02:26;98993.38;;;24.73;61.04
16806;BME280;8520;50.102;20.010;2023-05-20T12:04:56;98985.53;;;25.25;60.40
16806;BME280;8520;50.102;20.010;2023-05-20T12:07:24;98982.19;;;26.20;59.41
16806;BME280;8520;50.102;20.010;2023-05-20T12:09:52;98984.94;;;25.80;59.01
16806;BME280;8520;50.102;20.010;2023-05-20T12:12:20;98980.97;;;25.68;59.13
16806;BME280;8520;50.102;20.010;2023-05-20T12:14:50;98982.53;;;26.24;57.59
16806;BME280;8520;50.102;20.010;2023-05-20T12:17:18;98975.59;;;26.90;56.45
16806;BME280;8520;50.102;20.010;2023-05-20T12:19:46;98974.50;;;26.53;56.54
16806;BME280;8520;50.102;20.010;2023-05-20T12:22:15;98964.78;;;27.21;56.26
16806;BME280;8520;50.102;20.010;2023-05-20T12:24:44;98961.13;;;27.53;55.49
16806;BME280;8520;50.102;20.010;2023-05-20T12:27:12;98954.72;;;26.78;57.07
16806;BME280;8520;50.102;20.010;2023-05-20T12:29:40;98946.00;;;27.51;56.10
16806;BME280;8520;50.102;20.010;2023-05-20T12:32:08;98948.44;;;28.06;55.07
16806;BME280;8520;50.102;20.010;2023-05-20T12:34:36;98940.72;;;27.89;54.57
16806;BME280;8520;50.102;20.010;2023-05-20T12:37:05;98943.00;;;28.35;53.84
16806;BME280;8520;50.102;20.010;2023-05-20T12:39:34;98944.03;;;28.94;53.23
16806;BME280;8520;50.102;20.010;2023-05-20T12:42:02;98934.34;;;29.07;52.57
16806;BME280;8520;50.102;20.010;2023-05-20T12:44:31;98930.41;;;29.29;51.87
16806;BME280;8520;50.102;20.010;2023-05-20T12:46:59;98928.84;;;30.03;51.34
16806;BME280;8520;50.102;20.010;2023-05-20T12:49:27;98939.41;;;29.45;51.39
16806;BME280;8520;50.102;20.010;2023-05-20T12:51:55;98929.69;;;29.48;51.20
16806;BME280;8520;50.102;20.010;2023-05-20T12:54:27;98935.84;;;30.41;49.93
16806;BME280;8520;50.102;20.010;2023-05-20T12:56:57;98923.66;;;30.50;49.86
16806;BME280;8520;50.102;20.010;2023-05-20T12:59:25;98920.84;;;29.44;51.30
16806;BME280;8520;50.102;20.010;2023-05-20T13:01:53;98911.13;;;28.81;52.50
16806;BME280;8520;50.102;20.010;2023-05-20T13:04:21;98910.22;;;29.54;51.54
16806;BME280;8520;50.102;20.010;2023-05-20T13:06:50;98899.78;;;29.95;50.57
16806;BME280;8520;50.102;20.010;2023-05-20T13:09:18;98908.19;;;29.93;50.77
16806;BME280;8520;50.102;20.010;2023-05-20T13:11:46;98905.69;;;30.48;49.99